Farmington, Mississippi
Current Conditions -  °F | °C
As of 4:55 PM on Saturday 25 Oct 2014 (Local Time) from KCRX Reporting Station
Scattered Clouds Scattered Clouds  
Wind Chill: 81°   Ceiling: Unl
Heat Index: 82°   Visibility: 10mi
Dew Point: 63°   Wind: 7mph
Humidity: 54%   Direction: 270°W
Pressure: 30.02"   Gusts: NA
Location:  34.9238°N, 88.6234°W
Report Text: KCRX 252155Z AUTO 27006KT 10SM SCT043 27/17 A3002 RMK AO2
Loading
Personal Weather Stations






























Interactive Weather Map
Tropical Storm Tracking
New forecast layout! Learn more

10-Day Weather Forecast

Advertisements
Track Severe Weather on mobile